createdAt,value
2019-01-15T00:03:58.867Z,6.80
2019-01-15T00:09:10.143Z,6.80
2019-01-15T00:14:22.063Z,6.70
2019-01-15T00:19:33.696Z,6.70
2019-01-15T00:24:45.371Z,6.70
2019-01-15T00:29:56.952Z,6.70
2019-01-15T00:34:56.587Z,6.80
2019-01-15T00:39:56.242Z,6.80
2019-01-15T00:44:55.886Z,6.90
2019-01-15T00:49:55.615Z,6.90
2019-01-15T00:54:55.259Z,6.90
2019-01-15T00:59:55.727Z,6.90
2019-01-15T01:05:08.399Z,6.80
2019-01-15T01:10:20.609Z,6.80
2019-01-15T01:15:32.173Z,6.80
2019-01-15T01:20:44.359Z,6.90
2019-01-15T01:25:54.336Z,6.80
2019-01-15T01:31:06.127Z,6.90
2019-01-15T01:36:18.052Z,6.90
2019-01-15T01:41:29.963Z,6.90
2019-01-15T01:46:41.685Z,6.90
2019-01-15T01:51:53.633Z,6.80
2019-01-15T01:57:05.391Z,6.80
2019-01-15T02:02:17.039Z,6.70
2019-01-15T02:07:28.885Z,6.70
2019-01-15T02:12:40.080Z,6.70
2019-01-15T02:17:52.042Z,6.70
2019-01-15T02:23:03.567Z,6.70
2019-01-15T02:28:15.220Z,6.80
2019-01-15T02:33:26.866Z,6.80
2019-01-15T02:38:26.527Z,6.80
2019-01-15T02:43:26.159Z,6.80
2019-01-15T02:48:37.673Z,6.80
2019-01-15T02:53:49.426Z,6.80
2019-01-15T02:59:01.528Z,6.80
2019-01-15T03:04:13.119Z,6.80
2019-01-15T03:09:25.314Z,6.80
2019-01-15T03:14:36.887Z,6.80
2019-01-15T03:19:48.815Z,6.80
2019-01-15T03:25:00.321Z,6.90
2019-01-15T03:30:12.705Z,6.90
2019-01-15T03:35:24.439Z,6.90
2019-01-15T03:46:13.021Z,6.90
2019-01-15T03:51:25.097Z,6.90
2019-01-15T03:56:36.625Z,6.90
2019-01-15T04:01:46.617Z,6.90
2019-01-15T04:12:35.299Z,6.70
2019-01-15T04:17:47.119Z,6.80
2019-01-15T04:22:59.254Z,6.70
2019-01-15T04:28:11.139Z,6.70
2019-01-15T04:33:22.454Z,6.70
2019-01-15T04:38:35.235Z,6.60
2019-01-15T04:43:46.788Z,6.60
2019-01-15T04:48:58.588Z,6.70
2019-01-15T04:54:10.387Z,6.60
2019-01-15T04:59:22.764Z,6.60
2019-01-15T05:04:34.343Z,6.60
2019-01-15T05:09:46.523Z,6.70
2019-01-15T05:14:58.240Z,6.70
2019-01-15T05:20:09.948Z,6.60
2019-01-15T05:25:21.861Z,6.60
2019-01-15T05:30:33.683Z,6.60
2019-01-15T05:35:45.659Z,6.60
2019-01-15T05:40:57.457Z,6.60
2019-01-15T05:46:09.232Z,6.70
2019-01-15T05:57:07.047Z,6.60
2019-01-15T06:02:19.116Z,6.70
2019-01-15T06:07:33.734Z,6.80
2019-01-15T06:12:44.125Z,6.70
2019-01-15T06:17:55.836Z,6.80
2019-01-15T06:23:08.175Z,6.80
2019-01-15T06:28:19.949Z,6.80
2019-01-15T06:33:31.624Z,6.80
2019-01-15T06:38:43.764Z,6.90
2019-01-15T06:43:55.960Z,6.90
2019-01-15T06:49:07.159Z,6.90
2019-01-15T06:54:18.597Z,6.90
2019-01-15T06:59:30.636Z,6.90
2019-01-15T07:04:44.052Z,6.90
2019-01-15T07:10:01.450Z,6.90
2019-01-15T07:15:13.214Z,6.90
2019-01-15T07:20:25.311Z,6.90
2019-01-15T07:25:37.392Z,6.90
2019-01-15T07:30:48.636Z,6.90
2019-01-15T07:36:00.364Z,7.00
2019-01-15T07:41:12.204Z,7.00
2019-01-15T07:46:24.577Z,7.00
2019-01-15T07:51:36.760Z,7.10
2019-01-15T07:56:48.161Z,7.10
2019-01-15T08:02:00.073Z,7.10
2019-01-15T08:07:11.892Z,7.10
2019-01-15T08:12:11.672Z,7.20
2019-01-15T08:17:32.188Z,7.30
2019-01-15T08:22:44.072Z,7.30
2019-01-15T08:27:44.849Z,7.30
2019-01-15T08:32:56.473Z,7.30
2019-01-15T08:37:56.657Z,7.30
2019-01-15T08:43:15.775Z,7.30
2019-01-15T08:48:29.640Z,7.40
2019-01-15T08:53:41.815Z,7.40
2019-01-15T08:58:53.503Z,7.50
2019-01-15T09:04:05.092Z,7.50
2019-01-15T09:09:08.119Z,7.60
2019-01-15T09:14:27.219Z,7.60
2019-01-15T09:19:46.068Z,7.70
2019-01-15T09:24:57.949Z,7.70
2019-01-15T09:30:09.332Z,7.70
2019-01-15T09:35:21.776Z,7.70
2019-01-15T09:40:33.844Z,7.80
2019-01-15T09:45:46.191Z,7.90
2019-01-15T09:50:58.516Z,7.90
2019-01-15T09:55:58.312Z,8.00
2019-01-15T10:01:17.192Z,8.00
2019-01-15T10:06:28.823Z,8.00
2019-01-15T10:11:40.204Z,8.00
2019-01-15T10:16:40.304Z,8.10
2019-01-15T10:21:59.270Z,8.10
2019-01-15T10:27:11.555Z,8.10
2019-01-15T10:32:23.900Z,8.20
2019-01-15T10:37:35.696Z,8.20
2019-01-15T10:42:47.001Z,8.20
2019-01-15T10:47:58.417Z,8.20
2019-01-15T10:53:10.459Z,8.10
2019-01-15T11:01:23.919Z,8.20
2019-01-15T11:06:35.781Z,8.30
2019-01-15T11:11:35.775Z,8.30
2019-01-15T11:16:54.881Z,8.30
2019-01-15T11:22:06.420Z,8.40
2019-01-15T11:27:18.583Z,8.30
2019-01-15T11:32:30.475Z,8.30
2019-01-15T21:49:37.771Z,10.10
2019-01-15T22:25:29.703Z,10.20
2019-01-15T22:30:55.194Z,10.20
2019-01-15T22:36:21.669Z,10.20
2019-01-15T22:41:43.818Z,10.20
2019-01-15T22:47:14.691Z,10.20
2019-01-15T22:52:35.003Z,10.20
2019-01-15T22:58:06.029Z,10.10
2019-01-15T23:03:36.791Z,10.20
2019-01-15T23:09:07.368Z,10.20
2019-01-15T23:14:38.612Z,10.20
2019-01-15T23:20:15.043Z,10.20
2019-01-15T23:25:34.812Z,10.30
2019-01-15T23:31:05.722Z,10.30
2019-01-15T23:36:36.136Z,10.20
2019-01-15T23:42:02.784Z,10.20
2019-01-15T23:47:33.987Z,10.30
2019-01-15T23:53:10.760Z,10.30
2019-01-15T23:58:41.459Z,10.30
